sensor_id;sensor_type;location;lat;lon;timestamp;P1;durP1;ratioP1;P2;durP2;ratioP2
15126;SDS011;7664;52.008;4.748;2022-12-26T00:02:25;18.77;;;11.23;;
15126;SDS011;7664;52.008;4.748;2022-12-26T00:04:53;18.52;;;11.98;;
15126;SDS011;7664;52.008;4.748;2022-12-26T00:07:23;19.70;;;11.93;;
15126;SDS011;7664;52.008;4.748;2022-12-26T00:09:51;19.38;;;11.40;;
15126;SDS011;7664;52.008;4.748;2022-12-26T00:12:19;22.77;;;13.10;;
15126;SDS011;7664;52.008;4.748;2022-12-26T00:14:50;21.73;;;13.70;;
15126;SDS011;7664;52.008;4.748;2022-12-26T00:17:18;19.38;;;12.30;;
15126;SDS011;7664;52.008;4.748;2022-12-26T00:19:46;25.00;;;13.68;;
15126;SDS011;7664;52.008;4.748;2022-12-26T00:22:15;20.23;;;13.00;;
15126;SDS011;7664;52.008;4.748;2022-12-26T00:24:47;22.75;;;12.68;;
15126;SDS011;7664;52.008;4.748;2022-12-26T00:27:15;21.92;;;13.45;;
15126;SDS011;7664;52.008;4.748;2022-12-26T00:29:46;23.10;;;13.02;;
15126;SDS011;7664;52.008;4.748;2022-12-26T00:32:16;19.52;;;12.20;;
15126;SDS011;7664;52.008;4.748;2022-12-26T00:34:45;25.58;;;13.93;;
15126;SDS011;7664;52.008;4.748;2022-12-26T00:37:13;21.25;;;13.07;;
15126;SDS011;7664;52.008;4.748;2022-12-26T00:39:42;20.38;;;12.55;;
15126;SDS011;7664;52.008;4.748;2022-12-26T00:42:13;19.98;;;13.30;;
15126;SDS011;7664;52.008;4.748;2022-12-26T00:44:44;19.02;;;12.45;;
15126;SDS011;7664;52.008;4.748;2022-12-26T00:47:12;24.02;;;14.43;;
15126;SDS011;7664;52.008;4.748;2022-12-26T00:49:40;20.58;;;12.68;;
15126;SDS011;7664;52.008;4.748;2022-12-26T00:52:31;22.35;;;14.10;;
15126;SDS011;7664;52.008;4.748;2022-12-26T00:54:59;20.75;;;13.23;;
15126;SDS011;7664;52.008;4.748;2022-12-26T00:57:29;16.20;;;11.35;;
15126;SDS011;7664;52.008;4.748;2022-12-26T00:59:58;21.38;;;13.52;;
15126;SDS011;7664;52.008;4.748;2022-12-26T01:02:26;22.33;;;14.27;;
15126;SDS011;7664;52.008;4.748;2022-12-26T01:05:07;18.98;;;12.90;;
15126;SDS011;7664;52.008;4.748;2022-12-26T01:07:36;21.75;;;14.50;;
15126;SDS011;7664;52.008;4.748;2022-12-26T01:10:25;19.90;;;12.98;;
15126;SDS011;7664;52.008;4.748;2022-12-26T01:12:58;22.63;;;13.73;;
15126;SDS011;7664;52.008;4.748;2022-12-26T01:15:26;22.02;;;13.98;;
15126;SDS011;7664;52.008;4.748;2022-12-26T01:17:55;20.77;;;13.57;;
15126;SDS011;7664;52.008;4.748;2022-12-26T01:20:25;19.00;;;12.00;;
15126;SDS011;7664;52.008;4.748;2022-12-26T01:22:53;21.40;;;13.60;;
15126;SDS011;7664;52.008;4.748;2022-12-26T01:25:23;21.20;;;13.07;;
15126;SDS011;7664;52.008;4.748;2022-12-26T01:27:52;17.95;;;13.35;;
15126;SDS011;7664;52.008;4.748;2022-12-26T01:30:21;19.10;;;13.82;;
15126;SDS011;7664;52.008;4.748;2022-12-26T01:32:51;20.70;;;12.88;;
15126;SDS011;7664;52.008;4.748;2022-12-26T01:35:20;20.08;;;12.35;;
15126;SDS011;7664;52.008;4.748;2022-12-26T01:37:48;18.90;;;12.32;;
15126;SDS011;7664;52.008;4.748;2022-12-26T01:40:18;17.17;;;12.20;;
15126;SDS011;7664;52.008;4.748;2022-12-26T01:42:47;17.40;;;11.20;;
15126;SDS011;7664;52.008;4.748;2022-12-26T01:45:24;16.80;;;10.75;;
15126;SDS011;7664;52.008;4.748;2022-12-26T01:47:55;16.95;;;11.27;;
15126;SDS011;7664;52.008;4.748;2022-12-26T01:50:30;15.48;;;11.27;;
15126;SDS011;7664;52.008;4.748;2022-12-26T01:53:00;15.57;;;10.50;;
15126;SDS011;7664;52.008;4.748;2022-12-26T01:55:29;15.30;;;10.45;;
15126;SDS011;7664;52.008;4.748;2022-12-26T01:58:00;16.92;;;11.18;;
15126;SDS011;7664;52.008;4.748;2022-12-26T02:00:30;16.92;;;10.82;;
15126;SDS011;7664;52.008;4.748;2022-12-26T02:02:59;16.02;;;10.57;;
15126;SDS011;7664;52.008;4.748;2022-12-26T02:05:45;14.95;;;9.80;;
15126;SDS011;7664;52.008;4.748;2022-12-26T02:08:15;21.42;;;11.30;;
15126;SDS011;7664;52.008;4.748;2022-12-26T02:10:50;16.40;;;10.32;;
15126;SDS011;7664;52.008;4.748;2022-12-26T02:13:20;14.10;;;10.43;;
15126;SDS011;7664;52.008;4.748;2022-12-26T02:15:50;15.70;;;10.40;;
15126;SDS011;7664;52.008;4.748;2022-12-26T02:18:18;15.05;;;10.38;;
15126;SDS011;7664;52.008;4.748;2022-12-26T02:20:49;12.88;;;9.82;;
15126;SDS011;7664;52.008;4.748;2022-12-26T02:23:29;17.05;;;10.95;;
15126;SDS011;7664;52.008;4.748;2022-12-26T02:28:52;15.10;;;10.75;;
15126;SDS011;7664;52.008;4.748;2022-12-26T02:31:25;16.88;;;11.45;;
15126;SDS011;7664;52.008;4.748;2022-12-26T02:33:59;15.68;;;11.05;;
15126;SDS011;7664;52.008;4.748;2022-12-26T02:36:34;17.02;;;11.20;;
15126;SDS011;7664;52.008;4.748;2022-12-26T02:39:09;15.65;;;10.52;;
15126;SDS011;7664;52.008;4.748;2022-12-26T02:42:05;16.58;;;11.40;;
15126;SDS011;7664;52.008;4.748;2022-12-26T02:44:37;18.08;;;11.70;;
15126;SDS011;7664;52.008;4.748;2022-12-26T02:47:31;16.15;;;11.65;;
15126;SDS011;7664;52.008;4.748;2022-12-26T02:50:03;14.73;;;11.60;;
15126;SDS011;7664;52.008;4.748;2022-12-26T02:52:55;16.88;;;12.38;;
15126;SDS011;7664;52.008;4.748;2022-12-26T02:55:43;15.70;;;11.32;;
15126;SDS011;7664;52.008;4.748;2022-12-26T02:58:40;17.60;;;12.23;;
15126;SDS011;7664;52.008;4.748;2022-12-26T03:01:31;17.27;;;13.07;;
15126;SDS011;7664;52.008;4.748;2022-12-26T03:04:20;18.27;;;13.07;;
15126;SDS011;7664;52.008;4.748;2022-12-26T03:07:09;20.55;;;13.95;;
15126;SDS011;7664;52.008;4.748;2022-12-26T03:09:57;22.27;;;13.70;;
15126;SDS011;7664;52.008;4.748;2022-12-26T03:12:46;19.08;;;13.73;;
15126;SDS011;7664;52.008;4.748;2022-12-26T03:15:33;20.77;;;14.27;;
15126;SDS011;7664;52.008;4.748;2022-12-26T03:18:18;22.13;;;15.13;;
15126;SDS011;7664;52.008;4.748;2022-12-26T03:21:09;22.42;;;14.93;;
15126;SDS011;7664;52.008;4.748;2022-12-26T03:23:40;20.08;;;14.43;;
15126;SDS011;7664;52.008;4.748;2022-12-26T03:26:13;21.33;;;14.70;;
15126;SDS011;7664;52.008;4.748;2022-12-26T03:29:00;20.17;;;13.82;;
15126;SDS011;7664;52.008;4.748;2022-12-26T03:31:44;19.23;;;13.85;;
15126;SDS011;7664;52.008;4.748;2022-12-26T03:34:13;20.27;;;14.15;;
15126;SDS011;7664;52.008;4.748;2022-12-26T03:36:48;19.52;;;13.48;;
15126;SDS011;7664;52.008;4.748;2022-12-26T03:39:19;17.10;;;13.00;;
15126;SDS011;7664;52.008;4.748;2022-12-26T03:42:11;17.90;;;12.57;;
15126;SDS011;7664;52.008;4.748;2022-12-26T03:45:06;18.15;;;12.70;;
15126;SDS011;7664;52.008;4.748;2022-12-26T03:47:57;14.88;;;11.23;;
15126;SDS011;7664;52.008;4.748;2022-12-26T03:50:47;20.67;;;12.10;;
15126;SDS011;7664;52.008;4.748;2022-12-26T03:53:38;15.93;;;11.07;;
15126;SDS011;7664;52.008;4.748;2022-12-26T03:56:29;15.38;;;10.75;;
15126;SDS011;7664;52.008;4.748;2022-12-26T03:59:18;14.77;;;10.77;;
15126;SDS011;7664;52.008;4.748;2022-12-26T04:02:08;13.88;;;10.23;;
15126;SDS011;7664;52.008;4.748;2022-12-26T04:04:57;13.07;;;9.20;;
15126;SDS011;7664;52.008;4.748;2022-12-26T04:07:45;11.18;;;8.10;;
15126;SDS011;7664;52.008;4.748;2022-12-26T04:10:46;11.20;;;7.75;;
15126;SDS011;7664;52.008;4.748;2022-12-26T04:13:35;12.93;;;8.98;;
15126;SDS011;7664;52.008;4.748;2022-12-26T04:16:23;11.55;;;7.35;;
15126;SDS011;7664;52.008;4.748;2022-12-26T04:19:14;11.30;;;7.38;;
15126;SDS011;7664;52.008;4.748;2022-12-26T04:21:51;11.57;;;7.22;;
15126;SDS011;7664;52.008;4.748;2022-12-26T04:24:39;10.60;;;6.43;;
15126;SDS011;7664;52.008;4.748;2022-12-26T04:27:28;9.40;;;5.85;;
15126;SDS011;7664;52.008;4.748;2022-12-26T04:30:17;9.38;;;5.82;;
15126;SDS011;7664;52.008;4.748;2022-12-26T04:33:04;7.80;;;5.45;;
15126;SDS011;7664;52.008;4.748;2022-12-26T04:35:54;7.63;;;5.32;;
15126;SDS011;7664;52.008;4.748;2022-12-26T04:38:45;7.95;;;5.60;;
15126;SDS011;7664;52.008;4.748;2022-12-26T04:41:33;8.90;;;5.72;;
15126;SDS011;7664;52.008;4.748;2022-12-26T04:44:21;9.68;;;5.43;;
15126;SDS011;7664;52.008;4.748;2022-12-26T04:46:51;7.72;;;4.70;;
15126;SDS011;7664;52.008;4.748;2022-12-26T04:49:20;6.75;;;4.72;;
15126;SDS011;7664;52.008;4.748;2022-12-26T04:52:07;10.27;;;4.10;;
15126;SDS011;7664;52.008;4.748;2022-12-26T04:54:37;7.13;;;3.90;;
15126;SDS011;7664;52.008;4.748;2022-12-26T04:57:13;7.65;;;4.32;;
15126;SDS011;7664;52.008;4.748;2022-12-26T04:59:45;5.20;;;3.80;;
15126;SDS011;7664;52.008;4.748;2022-12-26T05:02:15;5.65;;;3.72;;
15126;SDS011;7664;52.008;4.748;2022-12-26T05:05:01;5.47;;;3.25;;
15126;SDS011;7664;52.008;4.748;2022-12-26T05:07:43;4.72;;;3.30;;
15126;SDS011;7664;52.008;4.748;2022-12-26T05:10:30;4.63;;;3.63;;
15126;SDS011;7664;52.008;4.748;2022-12-26T05:12:58;4.85;;;3.42;;
15126;SDS011;7664;52.008;4.748;2022-12-26T05:15:28;4.13;;;3.40;;
15126;SDS011;7664;52.008;4.748;2022-12-26T05:18:18;5.90;;;2.95;;
15126;SDS011;7664;52.008;4.748;2022-12-26T05:21:19;4.38;;;2.85;;
15126;SDS011;7664;52.008;4.748;2022-12-26T05:24:06;3.72;;;3.08;;
15126;SDS011;7664;52.008;4.748;2022-12-26T05:26:53;5.80;;;2.53;;
15126;SDS011;7664;52.008;4.748;2022-12-26T05:29:39;6.00;;;2.85;;
15126;SDS011;7664;52.008;4.748;2022-12-26T05:32:11;4.53;;;2.97;;
15126;SDS011;7664;52.008;4.748;2022-12-26T05:34:50;3.50;;;2.58;;
15126;SDS011;7664;52.008;4.748;2022-12-26T05:37:18;3.83;;;2.70;;
15126;SDS011;7664;52.008;4.748;2022-12-26T05:39:46;6.57;;;2.85;;
15126;SDS011;7664;52.008;4.748;2022-12-26T05:42:15;5.90;;;2.85;;
15126;SDS011;7664;52.008;4.748;2022-12-26T05:44:45;4.35;;;2.80;;
15126;SDS011;7664;52.008;4.748;2022-12-26T05:47:15;6.03;;;3.38;;
15126;SDS011;7664;52.008;4.748;2022-12-26T05:49:44;4.90;;;3.00;;
15126;SDS011;7664;52.008;4.748;2022-12-26T05:52:14;4.20;;;2.80;;
15126;SDS011;7664;52.008;4.748;2022-12-26T05:54:45;6.38;;;3.83;;
15126;SDS011;7664;52.008;4.748;2022-12-26T05:57:13;6.13;;;3.20;;
15126;SDS011;7664;52.008;4.748;2022-12-26T05:59:41;5.78;;;3.28;;
15126;SDS011;7664;52.008;4.748;2022-12-26T06:02:10;4.90;;;3.53;;
15126;SDS011;7664;52.008;4.748;2022-12-26T06:04:42;4.07;;;2.97;;
15126;SDS011;7664;52.008;4.748;2022-12-26T06:07:10;5.00;;;3.55;;
15126;SDS011;7664;52.008;4.748;2022-12-26T06:09:38;6.80;;;3.20;;
15126;SDS011;7664;52.008;4.748;2022-12-26T06:12:06;3.90;;;3.20;;
15126;SDS011;7664;52.008;4.748;2022-12-26T06:14:37;4.03;;;2.78;;
15126;SDS011;7664;52.008;4.748;2022-12-26T06:17:07;4.93;;;3.20;;
15126;SDS011;7664;52.008;4.748;2022-12-26T06:19:35;4.45;;;3.05;;
15126;SDS011;7664;52.008;4.748;2022-12-26T06:22:13;3.88;;;3.28;;
15126;SDS011;7664;52.008;4.748;2022-12-26T06:24:41;5.63;;;3.13;;
15126;SDS011;7664;52.008;4.748;2022-12-26T06:27:10;4.82;;;2.78;;
15126;SDS011;7664;52.008;4.748;2022-12-26T06:29:40;3.60;;;3.20;;
15126;SDS011;7664;52.008;4.748;2022-12-26T06:32:10;2.90;;;2.55;;
15126;SDS011;7664;52.008;4.748;2022-12-26T06:34:39;5.68;;;3.40;;
15126;SDS011;7664;52.008;4.748;2022-12-26T06:37:07;5.78;;;2.92;;
15126;SDS011;7664;52.008;4.748;2022-12-26T06:39:39;5.20;;;2.60;;
15126;SDS011;7664;52.008;4.748;2022-12-26T06:42:07;4.15;;;2.25;;
15126;SDS011;7664;52.008;4.748;2022-12-26T06:44:36;3.88;;;2.67;;
15126;SDS011;7664;52.008;4.748;2022-12-26T06:47:04;3.72;;;2.58;;
15126;SDS011;7664;52.008;4.748;2022-12-26T06:49:33;3.33;;;2.53;;
15126;SDS011;7664;52.008;4.748;2022-12-26T06:52:01;4.63;;;2.33;;
15126;SDS011;7664;52.008;4.748;2022-12-26T06:54:31;8.38;;;2.63;;
15126;SDS011;7664;52.008;4.748;2022-12-26T06:57:02;3.50;;;2.17;;
15126;SDS011;7664;52.008;4.748;2022-12-26T06:59:34;5.68;;;2.42;;
15126;SDS011;7664;52.008;4.748;2022-12-26T07:02:03;3.95;;;2.13;;
15126;SDS011;7664;52.008;4.748;2022-12-26T07:04:31;5.57;;;1.77;;
15126;SDS011;7664;52.008;4.748;2022-12-26T07:07:02;2.88;;;2.13;;
15126;SDS011;7664;52.008;4.748;2022-12-26T07:09:34;3.90;;;2.00;;
15126;SDS011;7664;52.008;4.748;2022-12-26T07:12:04;3.15;;;2.15;;
15126;SDS011;7664;52.008;4.748;2022-12-26T07:14:37;4.93;;;2.00;;
15126;SDS011;7664;52.008;4.748;2022-12-26T07:17:05;4.25;;;1.98;;
15126;SDS011;7664;52.008;4.748;2022-12-26T07:19:33;4.00;;;2.28;;
15126;SDS011;7664;52.008;4.748;2022-12-26T07:22:02;4.25;;;1.98;;
15126;SDS011;7664;52.008;4.748;2022-12-26T07:24:30;3.00;;;2.17;;
15126;SDS011;7664;52.008;4.748;2022-12-26T07:27:04;6.10;;;2.20;;
15126;SDS011;7664;52.008;4.748;2022-12-26T07:29:32;5.60;;;2.08;;
15126;SDS011;7664;52.008;4.748;2022-12-26T07:32:01;1.95;;;1.73;;
15126;SDS011;7664;52.008;4.748;2022-12-26T07:34:29;2.35;;;1.58;;
15126;SDS011;7664;52.008;4.748;2022-12-26T07:36:58;2.78;;;1.58;;
15126;SDS011;7664;52.008;4.748;2022-12-26T07:39:27;4.32;;;2.33;;
15126;SDS011;7664;52.008;4.748;2022-12-26T07:41:55;3.97;;;1.35;;
15126;SDS011;7664;52.008;4.748;2022-12-26T07:44:28;6.63;;;2.30;;
15126;SDS011;7664;52.008;4.748;2022-12-26T07:46:56;4.65;;;2.08;;
15126;SDS011;7664;52.008;4.748;2022-12-26T07:49:26;6.68;;;2.42;;
15126;SDS011;7664;52.008;4.748;2022-12-26T07:51:55;9.90;;;2.10;;
15126;SDS011;7664;52.008;4.748;2022-12-26T07:54:24;7.53;;;2.63;;
15126;SDS011;7664;52.008;4.748;2022-12-26T07:56:58;8.15;;;1.65;;
15126;SDS011;7664;52.008;4.748;2022-12-26T07:59:48;6.13;;;2.75;;
15126;SDS011;7664;52.008;4.748;2022-12-26T08:02:20;4.32;;;1.90;;
15126;SDS011;7664;52.008;4.748;2022-12-26T08:04:49;4.00;;;1.95;;
15126;SDS011;7664;52.008;4.748;2022-12-26T08:07:17;2.92;;;1.70;;
15126;SDS011;7664;52.008;4.748;2022-12-26T08:09:46;5.35;;;2.05;;
15126;SDS011;7664;52.008;4.748;2022-12-26T08:12:14;3.05;;;1.70;;
15126;SDS011;7664;52.008;4.748;2022-12-26T08:14:48;4.05;;;1.92;;
15126;SDS011;7664;52.008;4.748;2022-12-26T08:17:17;5.55;;;1.73;;
15126;SDS011;7664;52.008;4.748;2022-12-26T08:19:45;3.28;;;2.38;;
15126;SDS011;7664;52.008;4.748;2022-12-26T08:22:14;5.55;;;1.90;;
15126;SDS011;7664;52.008;4.748;2022-12-26T08:24:43;2.25;;;1.73;;
15126;SDS011;7664;52.008;4.748;2022-12-26T08:27:11;7.30;;;2.28;;
15126;SDS011;7664;52.008;4.748;2022-12-26T08:29:41;3.30;;;1.67;;
15126;SDS011;7664;52.008;4.748;2022-12-26T08:32:11;6.22;;;1.83;;
15126;SDS011;7664;52.008;4.748;2022-12-26T08:34:39;4.75;;;1.88;;
15126;SDS011;7664;52.008;4.748;2022-12-26T08:37:07;5.55;;;3.03;;
15126;SDS011;7664;52.008;4.748;2022-12-26T08:39:38;5.57;;;2.05;;
15126;SDS011;7664;52.008;4.748;2022-12-26T08:42:06;8.30;;;2.25;;
15126;SDS011;7664;52.008;4.748;2022-12-26T08:44:36;4.70;;;2.33;;
15126;SDS011;7664;52.008;4.748;2022-12-26T08:47:10;3.38;;;2.33;;
15126;SDS011;7664;52.008;4.748;2022-12-26T08:49:41;4.07;;;2.10;;
15126;SDS011;7664;52.008;4.748;2022-12-26T08:52:09;2.80;;;1.90;;
15126;SDS011;7664;52.008;4.748;2022-12-26T08:54:37;5.20;;;2.05;;
15126;SDS011;7664;52.008;4.748;2022-12-26T08:57:08;2.95;;;1.42;;
15126;SDS011;7664;52.008;4.748;2022-12-26T08:59:36;7.85;;;1.52;;
15126;SDS011;7664;52.008;4.748;2022-12-26T09:02:05;1.95;;;1.50;;
15126;SDS011;7664;52.008;4.748;2022-12-26T09:04:35;6.20;;;1.50;;
15126;SDS011;7664;52.008;4.748;2022-12-26T09:07:03;6.28;;;1.23;;
15126;SDS011;7664;52.008;4.748;2022-12-26T09:09:31;8.45;;;1.70;;
15126;SDS011;7664;52.008;4.748;2022-12-26T09:12:04;8.52;;;1.67;;
15126;SDS011;7664;52.008;4.748;2022-12-26T09:14:32;4.82;;;0.98;;
15126;SDS011;7664;52.008;4.748;2022-12-26T09:17:02;7.60;;;1.65;;
15126;SDS011;7664;52.008;4.748;2022-12-26T09:19:31;9.85;;;1.63;;
15126;SDS011;7664;52.008;4.748;2022-12-26T09:22:01;9.02;;;1.80;;
15126;SDS011;7664;52.008;4.748;2022-12-26T09:24:45;8.02;;;1.95;;
15126;SDS011;7664;52.008;4.748;2022-12-26T09:27:14;8.48;;;1.08;;
15126;SDS011;7664;52.008;4.748;2022-12-26T09:29:43;10.38;;;1.70;;
15126;SDS011;7664;52.008;4.748;2022-12-26T09:32:11;6.60;;;1.05;;
15126;SDS011;7664;52.008;4.748;2022-12-26T09:34:40;5.45;;;1.55;;
15126;SDS011;7664;52.008;4.748;2022-12-26T09:37:09;9.18;;;2.17;;
15126;SDS011;7664;52.008;4.748;2022-12-26T09:39:37;4.82;;;0.60;;
15126;SDS011;7664;52.008;4.748;2022-12-26T09:42:11;6.20;;;1.17;;
15126;SDS011;7664;52.008;4.748;2022-12-26T09:44:46;2.63;;;0.88;;
15126;SDS011;7664;52.008;4.748;2022-12-26T09:47:18;4.85;;;0.77;;
15126;SDS011;7664;52.008;4.748;2022-12-26T09:49:53;2.53;;;0.77;;
15126;SDS011;7664;52.008;4.748;2022-12-26T09:52:26;6.78;;;0.90;;
15126;SDS011;7664;52.008;4.748;2022-12-26T09:54:59;4.07;;;1.00;;
15126;SDS011;7664;52.008;4.748;2022-12-26T09:57:33;10.98;;;1.40;;
15126;SDS011;7664;52.008;4.748;2022-12-26T10:00:06;5.38;;;1.30;;
15126;SDS011;7664;52.008;4.748;2022-12-26T10:02:37;10.65;;;1.35;;
15126;SDS011;7664;52.008;4.748;2022-12-26T10:05:06;10.75;;;1.73;;
15126;SDS011;7664;52.008;4.748;2022-12-26T10:07:38;7.38;;;1.17;;
15126;SDS011;7664;52.008;4.748;2022-12-26T10:10:08;5.97;;;1.20;;
15126;SDS011;7664;52.008;4.748;2022-12-26T10:12:39;13.27;;;1.73;;
15126;SDS011;7664;52.008;4.748;2022-12-26T10:15:14;5.78;;;1.08;;
15126;SDS011;7664;52.008;4.748;2022-12-26T10:17:48;6.22;;;1.50;;
15126;SDS011;7664;52.008;4.748;2022-12-26T10:20:23;7.97;;;1.50;;
15126;SDS011;7664;52.008;4.748;2022-12-26T10:23:06;5.65;;;0.75;;
15126;SDS011;7664;52.008;4.748;2022-12-26T10:25:38;4.07;;;1.52;;
15126;SDS011;7664;52.008;4.748;2022-12-26T10:28:12;3.38;;;1.15;;
15126;SDS011;7664;52.008;4.748;2022-12-26T10:30:43;3.97;;;1.42;;
15126;SDS011;7664;52.008;4.748;2022-12-26T10:33:13;5.32;;;1.40;;
15126;SDS011;7664;52.008;4.748;2022-12-26T10:35:44;4.53;;;1.45;;
15126;SDS011;7664;52.008;4.748;2022-12-26T10:38:22;9.30;;;1.90;;
15126;SDS011;7664;52.008;4.748;2022-12-26T10:40:53;11.95;;;1.67;;
15126;SDS011;7664;52.008;4.748;2022-12-26T10:43:25;4.38;;;1.00;;
15126;SDS011;7664;52.008;4.748;2022-12-26T10:45:59;5.50;;;1.08;;
15126;SDS011;7664;52.008;4.748;2022-12-26T10:48:30;13.82;;;3.30;;
15126;SDS011;7664;52.008;4.748;2022-12-26T10:50:58;9.43;;;1.25;;
15126;SDS011;7664;52.008;4.748;2022-12-26T10:53:30;6.80;;;1.38;;
15126;SDS011;7664;52.008;4.748;2022-12-26T10:55:58;6.88;;;1.70;;
15126;SDS011;7664;52.008;4.748;2022-12-26T10:58:28;14.38;;;1.95;;
15126;SDS011;7664;52.008;4.748;2022-12-26T11:01:02;4.05;;;0.98;;
15126;SDS011;7664;52.008;4.748;2022-12-26T11:03:52;3.75;;;1.02;;
15126;SDS011;7664;52.008;4.748;2022-12-26T11:06:21;7.75;;;0.93;;
15126;SDS011;7664;52.008;4.748;2022-12-26T11:08:54;4.00;;;0.75;;
15126;SDS011;7664;52.008;4.748;2022-12-26T11:11:23;2.28;;;1.13;;
15126;SDS011;7664;52.008;4.748;2022-12-26T11:13:52;3.65;;;0.80;;
15126;SDS011;7664;52.008;4.748;2022-12-26T11:16:29;3.33;;;0.88;;
15126;SDS011;7664;52.008;4.748;2022-12-26T11:19:02;7.93;;;1.10;;
15126;SDS011;7664;52.008;4.748;2022-12-26T11:21:32;5.10;;;1.17;;
15126;SDS011;7664;52.008;4.748;2022-12-26T11:24:14;3.30;;;0.85;;
15126;SDS011;7664;52.008;4.748;2022-12-26T11:26:46;4.38;;;0.85;;
15126;SDS011;7664;52.008;4.748;2022-12-26T11:29:17;3.60;;;0.77;;
15126;SDS011;7664;52.008;4.748;2022-12-26T11:31:50;3.40;;;1.35;;
15126;SDS011;7664;52.008;4.748;2022-12-26T11:34:22;9.30;;;1.10;;
15126;SDS011;7664;52.008;4.748;2022-12-26T11:36:54;2.70;;;0.40;;
15126;SDS011;7664;52.008;4.748;2022-12-26T11:39:24;2.85;;;0.93;;
15126;SDS011;7664;52.008;4.748;2022-12-26T11:41:54;3.05;;;1.10;;
15126;SDS011;7664;52.008;4.748;2022-12-26T11:44:24;6.45;;;1.17;;
15126;SDS011;7664;52.008;4.748;2022-12-26T11:46:55;2.75;;;0.57;;
15126;SDS011;7664;52.008;4.748;2022-12-26T11:49:25;1.90;;;1.13;;
15126;SDS011;7664;52.008;4.748;2022-12-26T11:51:55;3.22;;;0.98;;
15126;SDS011;7664;52.008;4.748;2022-12-26T11:54:37;2.45;;;1.13;;
15126;SDS011;7664;52.008;4.748;2022-12-26T11:57:16;3.90;;;1.35;;
15126;SDS011;7664;52.008;4.748;2022-12-26T11:59:48;2.72;;;0.80;;
15126;SDS011;7664;52.008;4.748;2022-12-26T12:04:56;2.60;;;0.80;;
15126;SDS011;7664;52.008;4.748;2022-12-26T12:07:34;1.80;;;0.70;;
15126;SDS011;7664;52.008;4.748;2022-12-26T12:10:20;4.93;;;0.90;;
15126;SDS011;7664;52.008;4.748;2022-12-26T12:12:55;3.47;;;0.88;;
15126;SDS011;7664;52.008;4.748;2022-12-26T12:15:30;7.10;;;0.70;;
15126;SDS011;7664;52.008;4.748;2022-12-26T12:18:00;4.97;;;0.63;;
15126;SDS011;7664;52.008;4.748;2022-12-26T12:20:35;3.28;;;0.90;;
15126;SDS011;7664;52.008;4.748;2022-12-26T12:23:19;3.45;;;0.63;;
15126;SDS011;7664;52.008;4.748;2022-12-26T12:25:57;2.97;;;0.75;;
15126;SDS011;7664;52.008;4.748;2022-12-26T12:28:32;3.30;;;0.52;;
15126;SDS011;7664;52.008;4.748;2022-12-26T12:31:03;2.30;;;0.50;;
15126;SDS011;7664;52.008;4.748;2022-12-26T12:33:40;3.42;;;0.88;;
15126;SDS011;7664;52.008;4.748;2022-12-26T12:36:10;1.73;;;0.82;;
15126;SDS011;7664;52.008;4.748;2022-12-26T12:38:51;3.53;;;0.40;;
15126;SDS011;7664;52.008;4.748;2022-12-26T12:41:27;2.25;;;0.50;;
15126;SDS011;7664;52.008;4.748;2022-12-26T12:44:01;3.58;;;0.70;;
15126;SDS011;7664;52.008;4.748;2022-12-26T12:46:32;2.45;;;0.50;;
15126;SDS011;7664;52.008;4.748;2022-12-26T12:49:12;4.88;;;1.02;;
15126;SDS011;7664;52.008;4.748;2022-12-26T12:51:46;2.85;;;0.52;;
15126;SDS011;7664;52.008;4.748;2022-12-26T12:54:39;1.00;;;0.60;;
15126;SDS011;7664;52.008;4.748;2022-12-26T12:57:19;2.08;;;0.90;;
15126;SDS011;7664;52.008;4.748;2022-12-26T12:59:52;7.05;;;0.90;;
15126;SDS011;7664;52.008;4.748;2022-12-26T13:02:24;0.50;;;0.47;;
15126;SDS011;7664;52.008;4.748;2022-12-26T13:05:00;4.93;;;0.68;;
15126;SDS011;7664;52.008;4.748;2022-12-26T13:07:30;5.30;;;0.95;;
15126;SDS011;7664;52.008;4.748;2022-12-26T13:10:02;4.57;;;0.90;;
15126;SDS011;7664;52.008;4.748;2022-12-26T13:12:34;4.00;;;0.82;;
15126;SDS011;7664;52.008;4.748;2022-12-26T13:15:13;2.85;;;0.60;;
15126;SDS011;7664;52.008;4.748;2022-12-26T13:17:48;1.88;;;0.63;;
15126;SDS011;7664;52.008;4.748;2022-12-26T13:20:18;2.38;;;0.70;;
15126;SDS011;7664;52.008;4.748;2022-12-26T13:22:50;2.80;;;0.73;;
15126;SDS011;7664;52.008;4.748;2022-12-26T13:25:42;3.78;;;0.77;;
15126;SDS011;7664;52.008;4.748;2022-12-26T13:28:15;3.30;;;0.90;;
15126;SDS011;7664;52.008;4.748;2022-12-26T13:30:44;2.75;;;1.08;;
15126;SDS011;7664;52.008;4.748;2022-12-26T13:33:19;4.28;;;0.80;;
15126;SDS011;7664;52.008;4.748;2022-12-26T13:35:50;1.40;;;0.38;;
15126;SDS011;7664;52.008;4.748;2022-12-26T13:38:21;2.72;;;0.50;;
15126;SDS011;7664;52.008;4.748;2022-12-26T13:40:51;3.70;;;0.82;;
15126;SDS011;7664;52.008;4.748;2022-12-26T13:43:24;3.05;;;0.88;;
15126;SDS011;7664;52.008;4.748;2022-12-26T13:48:57;3.70;;;0.65;;
15126;SDS011;7664;52.008;4.748;2022-12-26T13:54:24;2.70;;;0.38;;
15126;SDS011;7664;52.008;4.748;2022-12-26T13:59:47;2.75;;;0.85;;
15126;SDS011;7664;52.008;4.748;2022-12-26T14:02:25;1.38;;;0.40;;
15126;SDS011;7664;52.008;4.748;2022-12-26T14:05:29;2.40;;;0.52;;
15126;SDS011;7664;52.008;4.748;2022-12-26T14:08:05;2.13;;;0.50;;
15126;SDS011;7664;52.008;4.748;2022-12-26T14:10:37;3.10;;;0.60;;
15126;SDS011;7664;52.008;4.748;2022-12-26T14:13:15;3.53;;;0.70;;
15126;SDS011;7664;52.008;4.748;2022-12-26T14:15:56;1.85;;;0.90;;
15126;SDS011;7664;52.008;4.748;2022-12-26T14:18:34;4.32;;;1.00;;
15126;SDS011;7664;52.008;4.748;2022-12-26T14:21:15;2.63;;;0.52;;
15126;SDS011;7664;52.008;4.748;2022-12-26T14:23:48;4.05;;;0.60;;
15126;SDS011;7664;52.008;4.748;2022-12-26T14:26:27;1.45;;;0.50;;
15126;SDS011;7664;52.008;4.748;2022-12-26T14:28:59;0.95;;;0.40;;
15126;SDS011;7664;52.008;4.748;2022-12-26T14:31:36;4.60;;;0.60;;
15126;SDS011;7664;52.008;4.748;2022-12-26T14:34:11;5.25;;;0.68;;
15126;SDS011;7664;52.008;4.748;2022-12-26T14:36:43;4.78;;;0.52;;
15126;SDS011;7664;52.008;4.748;2022-12-26T14:39:18;2.30;;;0.60;;
15126;SDS011;7664;52.008;4.748;2022-12-26T14:42:11;2.00;;;0.80;;
15126;SDS011;7664;52.008;4.748;2022-12-26T14:44:59;4.07;;;0.80;;
15126;SDS011;7664;52.008;4.748;2022-12-26T14:47:37;4.45;;;0.82;;
15126;SDS011;7664;52.008;4.748;2022-12-26T14:52:59;4.45;;;1.05;;
15126;SDS011;7664;52.008;4.748;2022-12-26T14:55:47;2.38;;;1.15;;
15126;SDS011;7664;52.008;4.748;2022-12-26T14:58:18;2.03;;;0.68;;
15126;SDS011;7664;52.008;4.748;2022-12-26T15:00:51;2.42;;;0.70;;
15126;SDS011;7664;52.008;4.748;2022-12-26T15:03:25;2.67;;;0.40;;
15126;SDS011;7664;52.008;4.748;2022-12-26T15:06:09;0.93;;;0.60;;
15126;SDS011;7664;52.008;4.748;2022-12-26T15:08:49;4.75;;;1.05;;
15126;SDS011;7664;52.008;4.748;2022-12-26T15:11:31;5.40;;;1.00;;
15126;SDS011;7664;52.008;4.748;2022-12-26T15:14:13;3.20;;;1.08;;
15126;SDS011;7664;52.008;4.748;2022-12-26T15:16:54;4.40;;;0.85;;
15126;SDS011;7664;52.008;4.748;2022-12-26T15:22:26;1.55;;;1.10;;
15126;SDS011;7664;52.008;4.748;2022-12-26T15:25:13;4.40;;;1.63;;
15126;SDS011;7664;52.008;4.748;2022-12-26T15:28:05;3.58;;;1.50;;
15126;SDS011;7664;52.008;4.748;2022-12-26T15:30:46;2.35;;;1.40;;
15126;SDS011;7664;52.008;4.748;2022-12-26T15:33:20;7.95;;;2.50;;
15126;SDS011;7664;52.008;4.748;2022-12-26T15:35:52;11.45;;;3.83;;
15126;SDS011;7664;52.008;4.748;2022-12-26T15:38:35;11.60;;;3.42;;
15126;SDS011;7664;52.008;4.748;2022-12-26T15:41:11;9.98;;;3.40;;
15126;SDS011;7664;52.008;4.748;2022-12-26T15:43:46;6.00;;;2.20;;
15126;SDS011;7664;52.008;4.748;2022-12-26T15:46:17;7.05;;;1.85;;
15126;SDS011;7664;52.008;4.748;2022-12-26T15:48:51;8.40;;;2.08;;
15126;SDS011;7664;52.008;4.748;2022-12-26T15:51:26;7.22;;;1.63;;
15126;SDS011;7664;52.008;4.748;2022-12-26T15:54:01;7.03;;;2.05;;
15126;SDS011;7664;52.008;4.748;2022-12-26T15:56:41;8.52;;;1.80;;
15126;SDS011;7664;52.008;4.748;2022-12-26T15:59:24;7.60;;;2.88;;